Time;durP1;ratioP1;P1;durP2;ratioP2;P2;SDS_P1;SDS_P2;PMS_P1;PMS_P2;Temp;Humidity;BMP_temperature;BMP_pressure;BME280_temperature;BME280_humidity;BME280_pressure;Samples;Min_cycle;Max_cycle;Signal;HPM_P1;HPM_P2
2023/03/09 00:01:43;;;;;;;73.05;39.80;;;;;;;0.58;100.00;-18042.97;5082688;27;20623;-85
2023/03/09 00:04:19;;;;;;;71.57;38.88;;;;;;;0.57;100.00;-18042.81;5129060;27;20695;-85
2023/03/09 00:06:44;;;;;;;70.55;38.90;;;;;;;0.60;100.00;-18043.66;5124795;27;20044;-84
2023/03/09 00:09:12;;;;;;;75.15;39.92;;;;;;;0.55;100.00;-18042.28;5144418;27;20414;-84
2023/03/09 00:11:40;;;;;;;70.78;38.90;;;;;;;0.51;100.00;-18041.16;5144218;27;20568;-84
2023/03/09 00:14:06;;;;;;;75.72;42.72;;;;;;;0.52;100.00;-18041.31;5146109;27;20030;-84
2023/03/09 00:16:31;;;;;;;78.43;41.95;;;;;;;0.51;100.00;-18041.03;5125634;27;20043;-85
2023/03/09 00:18:58;;;;;;;72.50;38.60;;;;;;;0.49;100.00;-18040.63;5127616;27;20103;-85
2023/03/09 00:21:36;;;;;;;75.03;40.75;;;;;;;0.49;100.00;-18040.63;5141167;27;20362;-84
2023/03/09 00:24:09;;;;;;;85.03;44.22;;;;;;;0.49;100.00;-18040.63;5128276;27;20389;-84
2023/03/09 00:26:38;;;;;;;77.28;41.00;;;;;;;0.45;100.00;-18039.63;5139580;27;20133;-84
2023/03/09 00:29:05;;;;;;;77.28;41.35;;;;;;;0.45;100.00;-18039.63;5143366;27;20018;-84
2023/03/09 00:31:31;;;;;;;81.43;42.42;;;;;;;0.48;100.00;-18040.19;5126999;27;20038;-85
2023/03/09 00:33:56;;;;;;;81.80;42.72;;;;;;;0.47;100.00;-18040.06;5145294;27;20044;-84
2023/03/09 00:36:22;;;;;;;75.20;40.30;;;;;;;0.45;100.00;-18039.63;5146118;27;20027;-85
2023/03/09 00:38:55;;;;;;;83.07;42.28;;;;;;;0.42;100.00;-18038.81;5128436;27;20408;-84
2023/03/09 00:41:22;;;;;;;80.75;42.95;;;;;;;0.41;100.00;-18038.53;5148631;27;20039;-84
2023/03/09 00:43:47;;;;;;;101.18;51.30;;;;;;;0.41;100.00;-18038.53;5128330;27;20041;-85
2023/03/09 00:46:13;;;;;;;99.10;49.10;;;;;;;0.44;100.00;-18039.22;5147024;27;20030;-85
2023/03/09 00:48:39;;;;;;;80.68;35.78;;;;;;;0.42;100.00;-18038.81;5125469;27;20026;-84
2023/03/09 00:51:05;;;;;;;86.53;42.75;;;;;;;0.42;100.00;-18038.66;5146865;27;20019;-84
2023/03/09 00:53:31;;;;;;;80.03;36.15;;;;;;;0.43;100.00;-18039.09;5134997;22;20051;-86
2023/03/09 00:56:00;;;;;;;90.45;43.53;;;;;;;0.39;100.00;-18037.97;5105948;28;20038;-87
2023/03/09 00:58:25;;;;;;;89.85;44.63;;;;;;;0.39;100.00;-18037.84;5089725;28;20044;-87
2023/03/09 01:00:50;;;;;;;99.40;48.88;;;;;;;0.38;100.00;-18037.56;5108529;28;20142;-86
2023/03/09 01:03:16;;;;;;;87.03;44.42;;;;;;;0.37;100.00;-18037.41;5111742;28;20032;-87
2023/03/09 01:05:41;;;;;;;101.03;46.33;;;;;;;0.37;100.00;-18037.28;5109597;28;20046;-86
2023/03/09 01:08:06;;;;;;;85.20;37.38;;;;;;;0.35;100.00;-18036.72;5092284;28;20486;-86
2023/03/09 01:10:32;;;;;;;100.72;47.90;;;;;;;0.35;100.00;-18036.72;5092412;28;20130;-86
2023/03/09 01:12:57;;;;;;;92.13;42.95;;;;;;;0.35;100.00;-18036.88;5108404;28;20035;-85
2023/03/09 01:15:22;;;;;;;94.75;45.90;;;;;;;0.40;100.00;-18038.13;5092735;28;20071;-85
2023/03/09 01:17:48;;;;;;;97.05;44.72;;;;;;;0.38;100.00;-18037.56;5112559;28;20102;-85
2023/03/09 01:20:14;;;;;;;94.88;46.38;;;;;;;0.37;100.00;-18037.41;5111644;28;20052;-85
2023/03/09 01:22:39;;;;;;;95.18;45.70;;;;;;;0.39;100.00;-18037.84;5093445;28;20419;-85
2023/03/09 01:25:05;;;;;;;91.80;44.00;;;;;;;0.39;100.00;-18037.84;5111506;28;20040;-86
2023/03/09 01:27:31;;;;;;;91.15;43.80;;;;;;;0.40;100.00;-18038.13;5092660;28;20395;-85
2023/03/09 01:29:57;;;;;;;109.78;52.05;;;;;;;0.41;100.00;-18038.41;5111258;28;20039;-85
2023/03/09 01:32:22;;;;;;;111.15;46.88;;;;;;;0.42;100.00;-18038.66;5092525;28;20040;-85
2023/03/09 01:34:48;;;;;;;89.05;44.13;;;;;;;0.40;100.00;-18038.13;5110959;28;20115;-86
2023/03/09 01:37:13;;;;;;;94.40;43.53;;;;;;;0.41;100.00;-18038.41;5093264;28;20035;-86
2023/03/09 01:39:38;;;;;;;94.65;45.22;;;;;;;0.36;100.00;-18037.00;5102256;28;20102;-86
2023/03/09 01:42:04;;;;;;;90.90;42.47;;;;;;;0.32;100.00;-18036.03;5072245;28;20052;-85
2023/03/09 01:44:29;;;;;;;86.95;45.78;;;;;;;0.34;100.00;-18036.59;5106371;28;20034;-86
2023/03/09 01:46:56;;;;;;;88.38;43.22;;;;;;;0.39;100.00;-18037.97;5111791;28;20055;-86
2023/03/09 01:49:22;;;;;;;101.22;49.10;;;;;;;0.38;100.00;-18037.69;5091579;28;20047;-86
2023/03/09 01:52:27;;;;;;;93.85;46.08;;;;;;;0.36;100.00;-18037.00;5111201;28;20043;-86
2023/03/09 01:54:58;;;;;;;93.15;45.38;;;;;;;0.35;100.00;-18036.88;5076040;28;20039;-86
2023/03/09 01:57:55;;;;;;;94.68;42.55;;;;;;;0.36;100.00;-18037.00;5090203;28;20557;-86
2023/03/09 02:00:24;;;;;;;113.93;49.78;;;;;;;0.34;100.00;-18036.44;5108368;28;20043;-86
2023/03/09 02:02:56;;;;;;;89.18;41.67;;;;;;;0.33;100.00;-18036.19;5110249;28;20498;-86
2023/03/09 02:05:47;;;;;;;108.00;52.30;;;;;;;0.35;100.00;-18036.88;5109994;28;20044;-86
2023/03/09 02:08:13;;;;;;;101.88;47.15;;;;;;;0.38;100.00;-18037.69;5098029;28;20043;-86
2023/03/09 02:10:45;;;;;;;104.45;51.00;;;;;;;0.39;100.00;-18037.84;5071741;28;20042;-86
2023/03/09 02:13:14;;;;;;;96.05;47.72;;;;;;;0.42;100.00;-18038.66;5089465;28;20410;-85
2023/03/09 02:15:41;;;;;;;89.30;43.75;;;;;;;0.37;100.00;-18037.28;5089655;28;20044;-85
2023/03/09 02:18:07;;;;;;;91.47;43.60;;;;;;;0.38;100.00;-18037.56;5089762;28;20064;-85
2023/03/09 02:20:49;;;;;;;105.90;47.22;;;;;;;0.44;100.00;-18039.38;5088964;28;20044;-85
2023/03/09 02:23:27;;;;;;;96.25;45.90;;;;;;;0.39;100.00;-18037.84;5090697;28;20044;-86
2023/03/09 02:26:08;;;;;;;91.03;44.20;;;;;;;0.40;100.00;-18038.13;5071310;28;20047;-85
2023/03/09 02:28:34;;;;;;;91.25;44.67;;;;;;;0.40;100.00;-18038.13;5071227;28;20047;-86
2023/03/09 02:31:00;;;;;;;80.30;39.63;;;;;;;0.37;100.00;-18037.28;5072237;28;20390;-85
2023/03/09 02:33:28;;;;;;;90.28;43.28;;;;;;;0.38;100.00;-18037.69;5086170;28;20126;-85
2023/03/09 02:35:55;;;;;;;90.80;42.63;;;;;;;0.44;100.00;-18039.22;5110009;28;20440;-85
2023/03/09 02:38:21;;;;;;;92.13;44.03;;;;;;;0.42;100.00;-18038.66;5088471;28;20395;-85
2023/03/09 02:40:48;;;;;;;86.68;42.65;;;;;;;0.39;100.00;-18037.84;5091548;28;20044;-85
2023/03/09 02:43:16;;;;;;;87.25;43.20;;;;;;;0.45;100.00;-18039.50;5111086;28;20044;-85
2023/03/09 02:45:41;;;;;;;90.22;44.15;;;;;;;0.49;100.00;-18040.63;5110776;28;20583;-85
2023/03/09 02:48:07;;;;;;;88.68;43.78;;;;;;;0.43;100.00;-18038.94;5093050;28;20043;-85
2023/03/09 02:50:32;;;;;;;91.50;42.38;;;;;;;0.44;100.00;-18039.22;5096618;28;20044;-86
2023/03/09 02:52:57;;;;;;;93.03;45.17;;;;;;;0.45;100.00;-18039.63;5092982;28;20044;-86
2023/03/09 02:55:23;;;;;;;90.07;41.75;;;;;;;0.47;100.00;-18040.06;5091411;28;20043;-85
2023/03/09 02:57:48;;;;;;;87.75;43.45;;;;;;;0.40;100.00;-18038.25;5091801;28;20044;-86
2023/03/09 03:00:15;;;;;;;92.90;44.67;;;;;;;0.41;100.00;-18038.53;5069881;28;20604;-85
2023/03/09 03:02:40;;;;;;;87.18;41.50;;;;;;;0.38;100.00;-18037.69;5089521;28;20047;-86
2023/03/09 03:05:07;;;;;;;90.45;40.72;;;;;;;0.41;100.00;-18038.53;5089477;28;20036;-86
2023/03/09 03:07:32;;;;;;;88.88;42.63;;;;;;;0.40;100.00;-18038.25;5082609;28;20050;-86
2023/03/09 03:09:58;;;;;;;81.95;38.85;;;;;;;0.42;100.00;-18038.66;5089544;28;20491;-85
2023/03/09 03:12:23;;;;;;;85.28;38.85;;;;;;;0.45;100.00;-18039.50;5089072;28;20043;-85
2023/03/09 03:14:48;;;;;;;84.50;41.55;;;;;;;0.44;100.00;-18039.38;5087376;28;20122;-85
2023/03/09 03:17:14;;;;;;;78.53;38.92;;;;;;;0.47;100.00;-18040.06;5093106;28;20050;-85
2023/03/09 03:19:39;;;;;;;81.70;38.83;;;;;;;0.47;100.00;-18039.91;5108812;28;20047;-86
2023/03/09 03:22:05;;;;;;;80.45;38.80;;;;;;;0.45;100.00;-18039.50;5088020;28;20119;-86
2023/03/09 03:24:35;;;;;;;85.10;37.67;;;;;;;0.44;100.00;-18039.22;5086777;28;20032;-86
2023/03/09 03:27:00;;;;;;;87.43;40.78;;;;;;;0.42;100.00;-18038.66;5088651;28;20028;-86
2023/03/09 03:29:25;;;;;;;81.45;39.97;;;;;;;0.38;100.00;-18037.56;5108309;28;20031;-86
2023/03/09 03:31:51;;;;;;;78.72;38.17;;;;;;;0.38;100.00;-18037.69;5090051;28;20119;-86
2023/03/09 03:34:16;;;;;;;82.97;38.83;;;;;;;0.40;100.00;-18038.13;5100681;28;20585;-85
2023/03/09 03:36:41;;;;;;;77.45;35.78;;;;;;;0.44;100.00;-18039.22;5090503;28;20118;-86
2023/03/09 03:39:08;;;;;;;77.30;37.92;;;;;;;0.44;100.00;-18039.22;5108695;28;20039;-86
2023/03/09 03:41:34;;;;;;;77.95;38.95;;;;;;;0.43;100.00;-18038.94;5093315;28;20047;-87
2023/03/09 03:43:59;;;;;;;77.53;37.95;;;;;;;0.45;100.00;-18039.50;5087343;28;20032;-86
2023/03/09 03:46:25;;;;;;;73.78;35.80;;;;;;;0.47;100.00;-18039.91;5087897;28;20149;-86
2023/03/09 03:48:51;;;;;;;74.03;36.42;;;;;;;0.43;100.00;-18038.94;5071042;28;20075;-86
2023/03/09 03:51:16;;;;;;;74.80;36.60;;;;;;;0.41;100.00;-18038.53;5089108;28;20403;-85
2023/03/09 03:53:42;;;;;;;78.65;39.42;;;;;;;0.40;100.00;-18038.13;5102877;28;20055;-84
2023/03/09 03:56:08;;;;;;;78.53;39.38;;;;;;;0.41;100.00;-18038.41;5103410;28;20028;-84
2023/03/09 03:58:34;;;;;;;78.13;38.78;;;;;;;0.40;100.00;-18038.25;5084715;28;20024;-84
2023/03/09 04:00:59;;;;;;;76.65;38.33;;;;;;;0.39;100.00;-18037.97;5080061;28;20127;-85
2023/03/09 04:03:24;;;;;;;77.45;37.35;;;;;;;0.48;100.00;-18040.19;5086462;28;20035;-84
2023/03/09 04:05:50;;;;;;;74.32;37.45;;;;;;;0.45;100.00;-18039.63;5084382;28;20032;-84
2023/03/09 04:08:15;;;;;;;72.88;36.33;;;;;;;0.42;100.00;-18038.66;5085331;28;20168;-84
2023/03/09 04:10:41;;;;;;;77.65;38.80;;;;;;;0.40;100.00;-18038.13;5102468;28;20135;-84
2023/03/09 04:13:07;;;;;;;79.90;37.58;;;;;;;0.44;100.00;-18039.22;5103636;28;20040;-84
2023/03/09 04:15:33;;;;;;;74.70;36.88;;;;;;;0.43;100.00;-18038.94;5084848;28;20114;-85
2023/03/09 04:17:58;;;;;;;71.30;34.85;;;;;;;0.48;100.00;-18040.34;5083729;28;20155;-84
2023/03/09 04:20:24;;;;;;;75.13;38.03;;;;;;;0.49;100.00;-18040.47;5082531;28;20884;-85
2023/03/09 04:22:50;;;;;;;68.65;35.53;;;;;;;0.49;100.00;-18040.63;5102958;28;20032;-85
2023/03/09 04:25:15;;;;;;;76.43;37.55;;;;;;;0.50;100.00;-18040.88;5085505;28;20031;-85
2023/03/09 04:27:41;;;;;;;76.63;37.67;;;;;;;0.49;100.00;-18040.63;5083046;28;20067;-85
2023/03/09 04:30:08;;;;;;;72.70;36.38;;;;;;;0.45;100.00;-18039.63;5105032;28;20387;-85
2023/03/09 04:32:34;;;;;;;75.80;35.83;;;;;;;0.50;100.00;-18040.88;5101528;28;20054;-85
2023/03/09 04:34:59;;;;;;;73.78;37.67;;;;;;;0.52;100.00;-18041.31;5084116;28;20406;-85
2023/03/09 04:37:25;;;;;;;73.80;37.55;;;;;;;0.50;100.00;-18040.75;5102687;28;20505;-85
2023/03/09 04:39:50;;;;;;;70.07;34.03;;;;;;;0.53;100.00;-18041.59;5097154;28;20097;-84
2023/03/09 04:42:15;;;;;;;74.03;35.63;;;;;;;0.54;100.00;-18041.84;5103179;28;20593;-84
2023/03/09 04:44:41;;;;;;;75.32;38.42;;;;;;;0.51;100.00;-18041.16;5082890;28;20096;-84
2023/03/09 04:47:06;;;;;;;71.22;38.78;;;;;;;0.51;100.00;-18041.16;5103630;28;20044;-85
2023/03/09 04:49:32;;;;;;;72.25;36.03;;;;;;;0.54;100.00;-18042.00;5101640;28;20036;-85
2023/03/09 04:51:57;;;;;;;74.75;38.13;;;;;;;0.53;100.00;-18041.72;5086435;28;20032;-84
2023/03/09 04:54:23;;;;;;;75.80;35.92;;;;;;;0.59;100.00;-18043.38;5079337;28;20043;-86
2023/03/09 04:56:48;;;;;;;68.82;36.40;;;;;;;0.51;100.00;-18041.16;5085153;28;20043;-85
2023/03/09 04:59:14;;;;;;;70.93;36.95;;;;;;;0.52;100.00;-18041.44;5077566;28;20036;-86
2023/03/09 05:01:39;;;;;;;71.18;35.33;;;;;;;0.55;100.00;-18042.28;5080236;28;20039;-85
2023/03/09 05:04:05;;;;;;;73.65;36.85;;;;;;;0.54;100.00;-18042.00;5103537;28;20036;-84
2023/03/09 05:06:30;;;;;;;74.78;38.35;;;;;;;0.53;100.00;-18041.72;5102609;28;20032;-85
2023/03/09 05:08:58;;;;;;;72.25;36.83;;;;;;;0.54;100.00;-18042.00;5086670;28;20050;-85
2023/03/09 05:11:23;;;;;;;68.82;33.83;;;;;;;0.52;100.00;-18041.31;5106298;28;20118;-85
2023/03/09 05:13:49;;;;;;;71.18;36.28;;;;;;;0.51;100.00;-18041.03;5107009;28;20139;-85
2023/03/09 05:16:14;;;;;;;69.70;35.67;;;;;;;0.50;100.00;-18040.88;5108187;28;20042;-86
2023/03/09 05:18:40;;;;;;;72.05;38.97;;;;;;;0.47;100.00;-18040.06;5105157;28;20078;-85
2023/03/09 05:21:08;;;;;;;71.82;36.38;;;;;;;0.44;100.00;-18039.22;5106536;28;20103;-86
2023/03/09 05:23:35;;;;;;;70.93;36.70;;;;;;;0.44;100.00;-18039.22;5087467;28;20043;-85
2023/03/09 05:26:02;;;;;;;69.28;34.75;;;;;;;0.47;100.00;-18040.06;5104203;28;20051;-85
2023/03/09 05:28:30;;;;;;;69.53;35.70;;;;;;;0.44;100.00;-18039.38;5098484;28;20032;-86
2023/03/09 05:30:56;;;;;;;66.70;35.00;;;;;;;0.43;100.00;-18039.09;5085420;28;20048;-86
2023/03/09 05:33:21;;;;;;;70.97;36.00;;;;;;;0.47;100.00;-18040.06;5101842;28;20043;-84
2023/03/09 05:35:48;;;;;;;67.90;35.67;;;;;;;0.40;100.00;-18038.25;5084174;28;20093;-85
2023/03/09 05:38:14;;;;;;;67.18;35.03;;;;;;;0.41;100.00;-18038.41;5102702;28;20067;-84
2023/03/09 05:40:39;;;;;;;69.82;35.03;;;;;;;0.43;100.00;-18038.94;5100781;28;20040;-83
2023/03/09 05:43:05;;;;;;;72.90;40.95;;;;;;;0.43;100.00;-18038.94;5102849;28;20430;-84
2023/03/09 05:45:30;;;;;;;67.95;37.13;;;;;;;0.48;100.00;-18040.19;5100164;28;20038;-84
2023/03/09 05:47:56;;;;;;;63.63;34.05;;;;;;;0.50;100.00;-18040.75;5103714;28;20595;-84
2023/03/09 05:50:21;;;;;;;64.35;32.17;;;;;;;0.50;100.00;-18040.88;5089832;28;20128;-85
2023/03/09 05:52:46;;;;;;;66.65;33.67;;;;;;;0.49;100.00;-18040.63;5105402;28;20044;-85
2023/03/09 05:55:12;;;;;;;67.53;35.72;;;;;;;0.45;100.00;-18039.63;5107340;28;20043;-85
2023/03/09 05:57:38;;;;;;;69.80;34.70;;;;;;;0.49;100.00;-18040.47;5105310;28;20665;-85
2023/03/09 06:00:06;;;;;;;58.80;31.15;;;;;;;0.45;100.00;-18039.63;5082463;28;20071;-85
2023/03/09 06:02:32;;;;;;;63.05;31.70;;;;;;;0.49;100.00;-18040.63;5085670;28;20031;-85
2023/03/09 06:04:58;;;;;;;59.03;31.58;;;;;;;0.50;100.00;-18040.75;5105335;28;20044;-84
2023/03/09 06:07:24;;;;;;;63.45;30.45;;;;;;;0.49;100.00;-18040.63;5087291;28;20470;-84
2023/03/09 06:09:50;;;;;;;58.70;28.40;;;;;;;0.50;100.00;-18040.88;5084608;28;20118;-84
2023/03/09 06:12:17;;;;;;;61.95;29.35;;;;;;;0.53;100.00;-18041.59;5103946;28;20027;-84
2023/03/09 06:14:43;;;;;;;63.25;33.30;;;;;;;0.50;100.00;-18040.88;5089520;28;20095;-84
2023/03/09 06:17:08;;;;;;;65.55;32.20;;;;;;;0.49;100.00;-18040.47;5083154;28;20799;-84
2023/03/09 06:19:34;;;;;;;67.97;33.65;;;;;;;0.52;100.00;-18041.44;5108494;28;20130;-84
2023/03/09 06:21:59;;;;;;;65.82;35.80;;;;;;;0.47;100.00;-18040.06;5106184;28;20036;-84
2023/03/09 06:24:24;;;;;;;63.85;30.98;;;;;;;0.42;100.00;-18038.81;5083060;28;20088;-84
2023/03/09 06:26:50;;;;;;;64.53;32.20;;;;;;;0.41;100.00;-18038.53;5090569;28;20040;-84
2023/03/09 06:29:15;;;;;;;67.18;34.35;;;;;;;0.43;100.00;-18038.94;5106440;28;20035;-84
2023/03/09 06:31:41;;;;;;;65.38;32.92;;;;;;;0.47;100.00;-18040.06;5103214;28;20036;-84
2023/03/09 06:34:06;;;;;;;65.40;34.15;;;;;;;0.48;100.00;-18040.19;5106965;28;20031;-84
2023/03/09 06:36:34;;;;;;;64.47;32.63;;;;;;;0.53;100.00;-18041.72;5087612;28;20040;-84
2023/03/09 06:38:59;;;;;;;66.60;31.98;;;;;;;0.50;100.00;-18040.88;5087291;28;20046;-84
2023/03/09 06:41:31;;;;;;;60.92;31.85;;;;;;;0.50;100.00;-18040.88;5104606;28;20398;-84
2023/03/09 06:43:57;;;;;;;56.60;29.20;;;;;;;0.51;100.00;-18041.03;5103414;28;20426;-84
2023/03/09 06:46:23;;;;;;;56.58;28.50;;;;;;;0.54;100.00;-18042.00;5082585;28;20039;-85
2023/03/09 06:48:49;;;;;;;60.05;29.13;;;;;;;0.56;100.00;-18042.53;5106531;28;20421;-85
2023/03/09 06:51:14;;;;;;;58.60;30.92;;;;;;;0.53;100.00;-18041.72;5103617;28;20032;-84
2023/03/09 06:53:39;;;;;;;58.17;30.50;;;;;;;0.54;100.00;-18041.84;5080655;28;20040;-84
2023/03/09 06:56:05;;;;;;;59.13;29.67;;;;;;;0.53;100.00;-18041.72;5085559;28;20040;-84
2023/03/09 06:58:32;;;;;;;59.53;32.60;;;;;;;0.57;100.00;-18042.81;5104102;28;20024;-84
2023/03/09 07:00:58;;;;;;;61.53;33.33;;;;;;;0.55;100.00;-18042.13;5103181;28;20499;-84
2023/03/09 07:03:23;;;;;;;61.85;34.28;;;;;;;0.61;100.00;-18043.78;5101053;28;20050;-84
2023/03/09 07:05:49;;;;;;;62.83;33.30;;;;;;;0.64;100.00;-18044.75;5103397;28;20620;-84
2023/03/09 07:08:14;;;;;;;54.78;26.58;;;;;;;0.72;100.00;-18046.69;5105534;28;20070;-84
2023/03/09 07:10:40;;;;;;;58.47;30.45;;;;;;;0.72;100.00;-18046.84;5105788;28;20032;-84
2023/03/09 07:13:11;;;;;;;54.95;29.75;;;;;;;0.74;100.00;-18047.25;5102799;28;20034;-84
2023/03/09 07:15:37;;;;;;;59.03;30.95;;;;;;;0.71;100.00;-18046.44;5077936;28;20028;-84
2023/03/09 07:18:02;;;;;;;60.03;32.95;;;;;;;0.72;100.00;-18046.69;5104872;28;20035;-84
2023/03/09 07:20:27;;;;;;;56.72;30.52;;;;;;;0.77;100.00;-18048.09;5105589;28;20044;-84
2023/03/09 07:22:53;;;;;;;57.00;30.00;;;;;;;0.78;100.00;-18048.50;5088420;28;20039;-85
2023/03/09 07:25:18;;;;;;;54.72;30.80;;;;;;;0.81;100.00;-18049.19;5106055;28;20097;-86
2023/03/09 07:27:43;;;;;;;55.40;28.33;;;;;;;0.87;100.00;-18050.84;5100923;28;20526;-85
2023/03/09 07:30:10;;;;;;;55.38;26.02;;;;;;;0.87;100.00;-18051.00;5082299;28;20032;-85
2023/03/09 07:32:35;;;;;;;54.63;28.83;;;;;;;0.86;100.00;-18050.72;5082330;28;20039;-85
2023/03/09 07:35:00;;;;;;;55.83;30.52;;;;;;;0.85;100.00;-18050.31;5102813;28;20050;-87
2023/03/09 07:37:26;;;;;;;52.55;30.10;;;;;;;0.83;100.00;-18049.88;5089133;28;20063;-85
2023/03/09 07:39:51;;;;;;;54.75;28.08;;;;;;;0.82;100.00;-18049.47;5084829;28;20047;-86
2023/03/09 07:42:17;;;;;;;53.03;26.42;;;;;;;0.86;100.00;-18050.72;5089317;28;20109;-86
2023/03/09 07:44:42;;;;;;;52.75;29.08;;;;;;;0.85;100.00;-18050.31;5104748;28;20069;-86
2023/03/09 07:47:07;;;;;;;54.25;28.10;;;;;;;0.86;100.00;-18050.72;5105743;28;20032;-86
2023/03/09 07:49:33;;;;;;;54.55;26.15;;;;;;;0.86;100.00;-18050.56;5082583;28;20032;-87
2023/03/09 07:51:58;;;;;;;55.30;29.55;;;;;;;0.89;100.00;-18051.56;5083823;28;20139;-85
2023/03/09 07:54:23;;;;;;;49.63;29.15;;;;;;;0.81;100.00;-18049.34;5080756;28;20036;-85
2023/03/09 07:56:51;;;;;;;51.03;27.73;;;;;;;0.79;100.00;-18048.78;5102486;28;20426;-88
2023/03/09 07:59:18;;;;;;;52.13;28.38;;;;;;;0.85;100.00;-18050.44;5087444;28;20035;-87
2023/03/09 08:01:44;;;;;;;50.75;26.10;;;;;;;0.90;100.00;-18051.81;5102922;28;20040;-87
2023/03/09 08:04:09;;;;;;;44.10;22.58;;;;;;;0.91;100.00;-18051.97;5103762;28;20040;-85
2023/03/09 08:06:38;;;;;;;47.30;21.88;;;;;;;0.94;100.00;-18052.78;5099523;28;20100;-85
2023/03/09 08:09:03;;;;;;;45.58;23.13;;;;;;;0.98;100.00;-18053.91;5085912;28;20050;-85
2023/03/09 08:11:29;;;;;;;50.67;27.55;;;;;;;1.02;100.00;-18054.88;5104243;28;20043;-85
2023/03/09 08:13:54;;;;;;;46.67;26.90;;;;;;;1.01;100.00;-18054.75;5086699;28;20475;-87
2023/03/09 08:16:20;;;;;;;47.10;25.25;;;;;;;1.06;100.00;-18056.13;5084420;28;20127;-85
2023/03/09 08:18:45;;;;;;;40.13;20.00;;;;;;;1.12;100.00;-18057.63;5102926;28;20064;-85
2023/03/09 08:21:13;;;;;;;44.88;22.27;;;;;;;1.17;100.00;-18058.88;5103689;28;20043;-85
2023/03/09 08:23:40;;;;;;;48.00;24.75;;;;;;;1.18;100.00;-18059.16;5084826;28;20043;-86
2023/03/09 08:26:13;;;;;;;44.80;25.88;;;;;;;1.18;100.00;-18059.16;5099968;28;20062;-85
2023/03/09 08:28:40;;;;;;;45.50;24.73;;;;;;;1.19;100.00;-18059.44;5100934;28;21818;-86
2023/03/09 08:31:05;;;;;;;46.50;23.02;;;;;;;1.22;100.00;-18060.41;5084244;28;20051;-85
2023/03/09 08:33:31;;;;;;;50.10;26.25;;;;;;;1.24;100.00;-18060.81;5103183;28;20031;-85
2023/03/09 08:35:57;;;;;;;47.05;24.08;;;;;;;1.27;100.00;-18061.66;5100306;28;20032;-85
2023/03/09 08:38:22;;;;;;;45.97;26.42;;;;;;;1.29;100.00;-18062.34;5104074;28;20046;-84
2023/03/09 08:40:48;;;;;;;47.47;27.05;;;;;;;1.32;100.00;-18063.19;5085142;28;20070;-86
2023/03/09 08:43:14;;;;;;;44.65;21.77;;;;;;;1.40;100.00;-18065.13;5086317;28;20458;-85
2023/03/09 08:45:39;;;;;;;44.40;22.25;;;;;;;1.45;100.00;-18066.63;5099547;28;20182;-86
2023/03/09 08:48:05;;;;;;;45.13;24.60;;;;;;;1.45;100.00;-18066.63;5102445;28;20039;-85
2023/03/09 08:50:30;;;;;;;46.72;23.23;;;;;;;1.46;100.00;-18066.91;5082398;28;20098;-85
2023/03/09 08:52:56;;;;;;;43.30;24.10;;;;;;;1.49;100.00;-18067.75;5102520;28;20050;-86
2023/03/09 08:55:22;;;;;;;44.63;23.15;;;;;;;1.53;100.00;-18068.72;5081766;28;20131;-85
2023/03/09 08:57:48;;;;;;;44.17;25.00;;;;;;;1.57;100.00;-18069.81;5073620;28;20071;-85
2023/03/09 09:00:14;;;;;;;43.58;23.65;;;;;;;1.58;100.00;-18070.25;5102120;28;20567;-85
2023/03/09 09:02:40;;;;;;;41.42;24.90;;;;;;;1.61;100.00;-18070.78;5082643;28;20048;-87
2023/03/09 09:05:07;;;;;;;44.92;25.10;;;;;;;1.59;100.00;-18070.38;5099796;28;20039;-87
2023/03/09 09:07:32;;;;;;;43.05;22.98;;;;;;;1.63;100.00;-18071.34;5095037;28;20035;-86
2023/03/09 09:09:59;;;;;;;43.30;23.52;;;;;;;1.68;100.00;-18072.72;5078922;28;20088;-86
2023/03/09 09:12:25;;;;;;;40.28;20.88;;;;;;;1.70;100.00;-18073.41;5082104;28;20036;-86
2023/03/09 09:14:51;;;;;;;43.03;24.05;;;;;;;1.72;100.00;-18073.97;5100582;28;20993;-86
2023/03/09 09:17:16;;;;;;;40.72;23.55;;;;;;;1.74;100.00;-18074.38;5104272;28;20111;-86
2023/03/09 09:19:42;;;;;;;43.00;23.55;;;;;;;1.72;100.00;-18073.97;5101658;28;20376;-86
2023/03/09 09:22:08;;;;;;;45.40;24.20;;;;;;;1.74;100.00;-18074.53;5084969;28;20123;-86
2023/03/09 09:24:38;;;;;;;40.78;22.10;;;;;;;1.78;100.00;-18075.50;5106406;28;20040;-86
2023/03/09 09:27:05;;;;;;;39.75;22.38;;;;;;;1.83;100.00;-18076.88;5088220;28;20080;-86
2023/03/09 09:29:34;;;;;;;44.30;24.67;;;;;;;1.82;100.00;-18076.59;5089365;28;20038;-86
2023/03/09 09:32:00;;;;;;;38.25;23.08;;;;;;;1.76;100.00;-18074.94;5103640;28;20175;-85
2023/03/09 09:34:31;;;;;;;42.15;23.63;;;;;;;1.84;100.00;-18077.00;5098326;28;20059;-86
2023/03/09 09:36:56;;;;;;;36.17;20.50;;;;;;;1.88;100.00;-18078.13;5104328;28;20035;-86
2023/03/09 09:39:22;;;;;;;40.47;22.05;;;;;;;1.87;100.00;-18078.00;5106626;28;20047;-86
2023/03/09 09:41:55;;;;;;;40.45;22.23;;;;;;;1.85;100.00;-18077.44;5088641;28;20045;-86
2023/03/09 09:44:25;;;;;;;40.00;22.65;;;;;;;1.80;100.00;-18076.06;5104532;28;20028;-86
2023/03/09 09:46:54;;;;;;;40.70;23.30;;;;;;;1.79;100.00;-18075.78;5082523;28;20047;-86
2023/03/09 09:49:23;;;;;;;40.35;22.92;;;;;;;1.71;100.00;-18073.56;5085232;28;20042;-86
2023/03/09 09:52:01;;;;;;;42.30;24.50;;;;;;;1.82;100.00;-18076.59;5088979;28;20126;-86
2023/03/09 09:54:41;;;;;;;40.63;21.65;;;;;;;1.91;100.00;-18078.97;5089163;28;20118;-85
2023/03/09 09:57:45;;;;;;;36.42;20.67;;;;;;;1.81;100.00;-18076.31;5086597;28;20069;-86
2023/03/09 10:00:15;;;;;;;44.58;22.65;;;;;;;1.91;100.00;-18079.09;5088448;28;20040;-86
2023/03/09 10:02:56;;;;;;;43.65;23.92;;;;;;;1.90;100.00;-18078.69;5083609;28;20043;-85
2023/03/09 10:05:48;;;;;;;40.95;24.33;;;;;;;1.85;100.00;-18077.28;5100756;28;20036;-86
2023/03/09 10:08:26;;;;;;;43.33;24.75;;;;;;;1.91;100.00;-18078.97;5085418;28;20040;-85
2023/03/09 10:10:52;;;;;;;41.25;23.27;;;;;;;1.92;100.00;-18079.22;5103903;28;20498;-86
2023/03/09 10:13:32;;;;;;;41.63;24.23;;;;;;;1.97;100.00;-18080.75;5086999;28;20036;-86
2023/03/09 10:16:01;;;;;;;;;;;;;;;2.07;100.00;-18083.25;5055208;28;20128;-86
2023/03/09 10:18:33;;;;;;;44.88;25.35;;;;;;;1.96;100.00;-18080.34;5094340;28;20361;-85
2023/03/09 10:21:00;;;;;;;36.72;20.73;;;;;;;2.08;100.00;-18083.66;5103580;28;20396;-85
2023/03/09 10:23:35;;;;;;;38.95;21.02;;;;;;;2.09;100.00;-18083.81;5085932;28;20032;-86
2023/03/09 10:26:15;;;;;;;41.47;23.20;;;;;;;2.17;100.00;-18086.16;5072708;28;20135;-85
2023/03/09 10:28:47;;;;;;;39.80;24.75;;;;;;;2.25;100.00;-18088.22;5100048;28;20036;-85
2023/03/09 10:31:18;;;;;;;39.75;22.17;;;;;;;2.28;100.00;-18088.91;5086324;28;20092;-86
2023/03/09 10:33:48;;;;;;;39.17;20.75;;;;;;;2.29;100.00;-18089.34;5086657;28;20740;-85
2023/03/09 10:36:22;;;;;;;40.95;21.98;;;;;;;2.34;100.00;-18090.72;5097946;28;20039;-85
2023/03/09 10:38:48;;;;;;;41.30;21.83;;;;;;;2.30;100.00;-18089.59;5089043;28;20044;-86
2023/03/09 10:41:19;;;;;;;40.25;19.73;;;;;;;2.36;100.00;-18091.13;5082412;28;20118;-86
2023/03/09 10:43:45;;;;;;;37.33;21.00;;;;;;;2.38;100.00;-18091.81;5082316;28;20039;-86
2023/03/09 10:46:22;;;;;;;37.38;20.40;;;;;;;2.32;100.00;-18090.16;5087115;28;20043;-86
2023/03/09 10:48:51;;;;;;;41.20;24.42;;;;;;;2.40;100.00;-18092.38;5105202;28;20036;-85
2023/03/09 10:51:33;;;;;;;38.50;22.17;;;;;;;2.40;100.00;-18092.25;5079689;28;20032;-85
2023/03/09 10:54:17;;;;;;;37.65;21.55;;;;;;;2.37;100.00;-18091.53;5050228;28;20041;-85
2023/03/09 10:56:44;;;;;;;38.60;19.77;;;;;;;2.38;100.00;-18091.81;5086734;28;20038;-85
2023/03/09 10:59:16;;;;;;;38.75;23.40;;;;;;;2.36;100.00;-18091.28;5101876;28;20043;-85
2023/03/09 11:01:51;;;;;;;38.10;21.15;;;;;;;2.45;100.00;-18093.75;5101810;28;20032;-84
2023/03/09 11:04:23;;;;;;;66.43;34.17;;;;;;;2.49;100.00;-18094.72;5098422;28;20714;-85
2023/03/09 11:06:59;;;;;;;67.05;39.22;;;;;;;2.63;100.00;-18098.59;5099774;28;20116;-85
2023/03/09 11:09:35;;;;;;;37.28;21.80;;;;;;;2.58;100.00;-18097.06;5082516;28;20073;-85
2023/03/09 11:12:18;;;;;;;35.33;20.70;;;;;;;2.61;100.00;-18098.03;5102917;28;20046;-85